Terminal Aerodrome Forecast
Issued by NWS

Home | Current Version | Previous Version | Text Only | Print | Product List | Glossary On
Versions: 1 2 3 4 5 6 7 8 9 10 11 12 13 14 15 16 17 18 19 20 21 22 23 24 25 26 27 28 29 30 31 32 33 34 35 36 37 38 39 40 41 42 43 44 45 46 47 48 49 50
086
FTUS41 KCTP 230526
TAFUNV
TAF
KUNV 230526Z 2306/2406 04007KT 2SM BR VCSH OVC006
     FM230800 08013G20KT 1SM -RA BR OVC004
     FM231400 07012G22KT 1SM RA BR OVC004 WS020/09030KT
     FM232000 06012G22KT 1SM -RASN BR OVC003 WS020/07040KT=

USA.gov is the U.S. government's official web portal to all federal, state and local government web resources and services.